createdAt,value
2024-03-26T00:00:36.353Z,58.49
2024-03-26T00:01:44.051Z,58.52
2024-03-26T00:02:49.439Z,58.65
2024-03-26T00:03:54.812Z,58.55
2024-03-26T00:05:00.215Z,58.69
2024-03-26T00:06:05.626Z,58.95
2024-03-26T00:07:11.023Z,58.63
2024-03-26T00:08:16.437Z,58.94
2024-03-26T00:09:21.853Z,58.75
2024-03-26T00:10:27.275Z,58.7
2024-03-26T00:11:32.716Z,59.01
2024-03-26T00:12:38.118Z,58.85
2024-03-26T00:13:43.543Z,58.88
2024-03-26T00:14:48.971Z,59.17
2024-03-26T00:15:54.363Z,58.89
2024-03-26T00:16:59.754Z,58.93
2024-03-26T00:18:05.180Z,58.87
2024-03-26T00:19:10.609Z,59.14
2024-03-26T00:20:16.074Z,59.18
2024-03-26T00:21:24.358Z,59.1
2024-03-26T00:22:29.795Z,59.51
2024-03-26T00:23:35.238Z,59.32
2024-03-26T00:24:40.639Z,59.35
2024-03-26T00:25:45.998Z,59.15
2024-03-26T00:26:51.392Z,59.61
2024-03-26T00:27:56.802Z,59.3
2024-03-26T00:29:02.252Z,59.2
2024-03-26T00:30:07.681Z,59.2
2024-03-26T00:31:13.068Z,59.14
2024-03-26T00:32:18.464Z,59.2
2024-03-26T00:33:23.873Z,59.73
2024-03-26T00:34:29.325Z,59.25
2024-03-26T00:35:34.781Z,59.35
2024-03-26T00:36:40.218Z,59.52
2024-03-26T00:37:45.630Z,59.27
2024-03-26T00:38:51.038Z,59.73
2024-03-26T00:39:56.427Z,59.82
2024-03-26T00:41:01.845Z,59.44
2024-03-26T00:42:07.268Z,59.93
2024-03-26T00:43:12.648Z,59.6
2024-03-26T00:44:18.024Z,59.46
2024-03-26T00:45:23.426Z,59.42
2024-03-26T00:46:28.853Z,59.63
2024-03-26T00:47:34.354Z,59.57
2024-03-26T00:48:39.751Z,59.48
2024-03-26T00:49:45.149Z,59.62
2024-03-26T00:50:50.564Z,60.02
2024-03-26T00:51:55.985Z,60.07
2024-03-26T00:53:01.378Z,60
2024-03-26T00:54:06.794Z,59.76
2024-03-26T00:55:12.233Z,59.78
2024-03-26T00:56:17.725Z,59.83
2024-03-26T00:57:23.150Z,59.76
2024-03-26T00:58:28.575Z,59.99
2024-03-26T00:59:33.974Z,59.79
2024-03-26T01:00:39.365Z,60.01
2024-03-26T01:01:44.780Z,59.89
2024-03-26T01:02:50.175Z,59.98
2024-03-26T01:03:55.577Z,60.64
2024-03-26T01:05:00.975Z,60.11
2024-03-26T01:06:06.346Z,60.12
2024-03-26T01:07:11.767Z,60.39
2024-03-26T01:08:17.186Z,60
2024-03-26T01:09:22.579Z,60.62
2024-03-26T01:10:27.996Z,60.47
2024-03-26T01:11:33.408Z,60.21
2024-03-26T01:12:38.807Z,60.18
2024-03-26T01:13:44.218Z,60.3
2024-03-26T01:14:49.630Z,60.26
2024-03-26T01:15:55.024Z,60.13
2024-03-26T01:17:00.470Z,60.19
2024-03-26T01:18:05.899Z,60.31
2024-03-26T01:19:11.302Z,60.38
2024-03-26T01:20:16.754Z,60.17
2024-03-26T01:21:25.861Z,60.69
2024-03-26T01:22:31.278Z,60.62
2024-03-26T01:23:36.693Z,60.43
2024-03-26T01:24:42.104Z,60.48
2024-03-26T01:25:47.522Z,60.77
2024-03-26T01:26:52.952Z,60.6
2024-03-26T01:27:58.343Z,60.51
2024-03-26T01:29:03.803Z,60.81
2024-03-26T01:30:09.235Z,60.48
2024-03-26T01:31:14.878Z,60.41
2024-03-26T01:32:20.290Z,60.48
2024-03-26T01:33:25.670Z,60.42
2024-03-26T01:34:31.118Z,60.54
2024-03-26T01:35:36.506Z,60.76
2024-03-26T01:36:41.949Z,60.63
2024-03-26T01:37:47.360Z,61.27
2024-03-26T01:38:52.761Z,61.2
2024-03-26T01:39:58.155Z,61.45
2024-03-26T01:41:03.556Z,60.92
2024-03-26T01:42:09.022Z,60.9
2024-03-26T01:43:14.442Z,60.71
2024-03-26T01:44:19.822Z,61.34
2024-03-26T01:45:25.198Z,61.3
2024-03-26T01:46:30.600Z,60.87
2024-03-26T01:47:35.980Z,60.88
2024-03-26T01:48:41.387Z,60.9
2024-03-26T01:49:46.779Z,60.77
2024-03-26T01:50:52.159Z,60.87
2024-03-26T01:51:57.567Z,60.9
2024-03-26T01:53:02.990Z,61.13
2024-03-26T01:54:08.411Z,61.25
2024-03-26T01:55:13.805Z,61.05
2024-03-26T01:56:19.269Z,61.11
2024-03-26T01:57:24.708Z,60.69
2024-03-26T01:58:30.126Z,60.72
2024-03-26T01:59:35.532Z,60.76
2024-03-26T02:00:40.945Z,60.73
2024-03-26T02:01:46.447Z,60.74
2024-03-26T02:02:51.849Z,61.38
2024-03-26T02:03:57.272Z,61.13
2024-03-26T02:05:02.679Z,60.86
2024-03-26T02:06:08.088Z,60.77
2024-03-26T02:07:13.518Z,60.75
2024-03-26T02:08:19.035Z,60.87
2024-03-26T02:09:24.477Z,61.53
2024-03-26T02:10:29.905Z,61.06
2024-03-26T02:11:35.337Z,60.82
2024-03-26T02:12:40.741Z,60.89
2024-03-26T02:13:46.158Z,60.87
2024-03-26T02:14:51.585Z,60.88
2024-03-26T02:15:57.020Z,61.04
2024-03-26T02:17:02.418Z,60.9
2024-03-26T02:18:07.835Z,61.15
2024-03-26T02:19:13.247Z,61.15
2024-03-26T02:20:18.644Z,60.93
2024-03-26T02:21:24.090Z,61.06
2024-03-26T02:22:29.527Z,61.63
2024-03-26T02:23:34.925Z,61.59
2024-03-26T02:24:40.338Z,61.12
2024-03-26T02:25:45.758Z,61.6
2024-03-26T02:26:51.223Z,61.54
2024-03-26T02:27:56.618Z,61.21
2024-03-26T02:29:02.111Z,61.49
2024-03-26T02:30:07.532Z,61.54
2024-03-26T02:31:12.933Z,61.81
2024-03-26T02:32:18.339Z,61.39
2024-03-26T02:33:23.732Z,61.74
2024-03-26T02:34:29.134Z,61.45
2024-03-26T02:35:34.573Z,61.21
2024-03-26T02:36:40.000Z,61.52
2024-03-26T02:37:45.425Z,61.8
2024-03-26T02:38:50.887Z,61.1
2024-03-26T02:39:56.335Z,61.25
2024-03-26T02:41:01.740Z,61.44
2024-03-26T02:42:07.135Z,61.17
2024-03-26T02:43:12.546Z,61.05
2024-03-26T02:44:17.956Z,61.01
2024-03-26T02:45:23.396Z,61.82
2024-03-26T02:46:28.799Z,61.23
2024-03-26T02:47:34.255Z,61.08
2024-03-26T02:48:39.652Z,61.23
2024-03-26T02:49:45.038Z,60.91
2024-03-26T02:50:50.529Z,61.07
2024-03-26T02:51:55.924Z,60.89
2024-03-26T02:53:01.399Z,61.07
2024-03-26T02:54:06.813Z,61.08
2024-03-26T02:55:12.201Z,61.01
2024-03-26T02:56:17.623Z,60.95
2024-03-26T02:57:23.060Z,60.98
2024-03-26T02:58:28.498Z,61.07
2024-03-26T02:59:34.039Z,61.02
2024-03-26T03:00:39.471Z,60.87
2024-03-26T03:01:44.893Z,60.91
2024-03-26T03:02:50.334Z,60.93
2024-03-26T03:03:55.777Z,60.94
2024-03-26T03:05:01.206Z,60.83
2024-03-26T03:06:06.706Z,60.98
2024-03-26T03:07:12.095Z,61.13
2024-03-26T03:08:17.528Z,61.18
2024-03-26T03:09:22.949Z,60.96
2024-03-26T03:10:28.369Z,60.9
2024-03-26T03:11:33.771Z,60.68
2024-03-26T03:12:39.184Z,60.88
2024-03-26T03:13:44.584Z,60.94
2024-03-26T03:14:50.106Z,60.84
2024-03-26T03:15:55.529Z,60.66
2024-03-26T03:17:00.922Z,60.83
2024-03-26T03:18:06.326Z,60.81
2024-03-26T03:19:11.752Z,60.66
2024-03-26T03:20:17.206Z,60.74
2024-03-26T03:21:22.610Z,60.96
2024-03-26T03:22:28.012Z,61.4
2024-03-26T03:23:33.422Z,61.24
2024-03-26T03:24:38.827Z,61.02
2024-03-26T03:25:44.259Z,61.26
2024-03-26T03:26:49.702Z,61.42
2024-03-26T03:27:55.120Z,60.94
2024-03-26T03:29:00.529Z,61.48
2024-03-26T03:30:05.946Z,61.03
2024-03-26T03:31:11.372Z,61.29
2024-03-26T03:32:16.833Z,61.07
2024-03-26T03:33:22.223Z,60.82
2024-03-26T03:34:27.684Z,60.85
2024-03-26T03:35:33.084Z,60.76
2024-03-26T03:36:38.476Z,61.11
2024-03-26T03:37:44.889Z,61.52
2024-03-26T03:38:50.429Z,60.72
2024-03-26T03:39:55.838Z,60.98
2024-03-26T03:41:01.362Z,60.86
2024-03-26T03:42:06.824Z,61.15
2024-03-26T03:43:12.410Z,61.02
2024-03-26T03:44:17.845Z,60.8
2024-03-26T03:45:23.243Z,60.78
2024-03-26T03:46:28.713Z,60.96
2024-03-26T03:47:34.114Z,60.83
2024-03-26T03:48:39.501Z,61.25
2024-03-26T03:49:44.909Z,60.9
2024-03-26T03:50:50.416Z,61.28
2024-03-26T03:51:55.826Z,61.59
2024-03-26T03:53:01.302Z,61.17
2024-03-26T03:54:06.801Z,61.39
2024-03-26T03:55:15.260Z,61.56
2024-03-26T03:56:20.675Z,60.75
2024-03-26T03:57:26.084Z,61
2024-03-26T03:58:31.540Z,61.11
2024-03-26T03:59:36.918Z,60.83
2024-03-26T04:00:42.341Z,61.08
2024-03-26T04:01:47.734Z,61.24
2024-03-26T04:02:53.167Z,60.83
2024-03-26T04:03:58.586Z,61.07
2024-03-26T04:05:04.046Z,60.74
2024-03-26T04:06:09.463Z,61.22
2024-03-26T04:07:14.879Z,60.77
2024-03-26T04:08:20.268Z,61.17
2024-03-26T04:09:25.677Z,60.88
2024-03-26T04:10:31.111Z,61.37
2024-03-26T04:11:36.541Z,61.44
2024-03-26T04:12:42.003Z,61.64
2024-03-26T04:13:47.448Z,60.91
2024-03-26T04:14:52.885Z,61.51
2024-03-26T04:15:58.265Z,61.84
2024-03-26T04:17:03.710Z,61.38
2024-03-26T04:18:09.153Z,61.39
2024-03-26T04:19:14.570Z,61.53
2024-03-26T04:20:20.007Z,61.02
2024-03-26T04:21:25.410Z,61.53
2024-03-26T04:22:30.880Z,61.02
2024-03-26T04:23:36.370Z,61.45
2024-03-26T04:24:41.771Z,61.19
2024-03-26T04:25:47.154Z,61.2
2024-03-26T04:26:52.639Z,61.59
2024-03-26T04:27:58.038Z,61.44
2024-03-26T04:29:03.459Z,61.42
2024-03-26T04:30:08.907Z,61.54
2024-03-26T04:31:14.309Z,61.46
2024-03-26T04:32:19.778Z,61.47
2024-03-26T04:33:25.163Z,60.94
2024-03-26T04:34:30.582Z,61.1
2024-03-26T04:35:36.034Z,61.37
2024-03-26T04:36:41.445Z,60.99
2024-03-26T04:37:46.858Z,61.17
2024-03-26T04:38:52.344Z,61.4
2024-03-26T04:39:57.744Z,60.91
2024-03-26T04:41:03.192Z,61.07
2024-03-26T04:42:09.575Z,61.47
2024-03-26T04:43:14.969Z,61.34
2024-03-26T04:44:21.398Z,61.03
2024-03-26T04:45:26.840Z,60.79
2024-03-26T04:46:32.263Z,61.29
2024-03-26T04:47:37.704Z,61.03
2024-03-26T04:48:43.100Z,60.96
2024-03-26T04:49:48.484Z,61.14
2024-03-26T04:50:53.990Z,61.26
2024-03-26T04:51:59.433Z,60.9
2024-03-26T04:53:04.876Z,61.15
2024-03-26T04:54:10.299Z,60.98
2024-03-26T04:55:15.696Z,61.33
2024-03-26T04:56:21.107Z,60.65
2024-03-26T04:57:26.527Z,61.22
2024-03-26T04:58:31.912Z,61.27
2024-03-26T04:59:37.305Z,61.37
2024-03-26T05:00:42.735Z,61.31
2024-03-26T05:01:48.154Z,60.72
2024-03-26T05:02:53.707Z,61.06
2024-03-26T05:03:59.095Z,58.59
2024-03-26T05:05:04.508Z,57.24
2024-03-26T05:06:10.014Z,56.75
2024-03-26T05:07:15.422Z,57.38
2024-03-26T05:08:20.856Z,57.36
2024-03-26T05:09:26.244Z,57.04
2024-03-26T05:10:31.646Z,56.88
2024-03-26T05:11:37.066Z,56.83
2024-03-26T05:12:42.496Z,57.27
2024-03-26T05:13:47.918Z,57.13
2024-03-26T05:14:53.425Z,56.97
2024-03-26T05:15:58.929Z,56.72
2024-03-26T05:17:04.319Z,56.57
2024-03-26T05:18:09.765Z,56.39
2024-03-26T05:19:17.450Z,56.12
2024-03-26T05:20:22.926Z,55.97
2024-03-26T05:21:28.319Z,55.69
2024-03-26T05:22:33.752Z,55.67
2024-03-26T05:23:39.183Z,55.58
2024-03-26T05:24:44.591Z,55.54
2024-03-26T05:25:49.996Z,55.27
2024-03-26T05:26:55.434Z,55.21
2024-03-26T05:28:00.960Z,54.96
2024-03-26T05:29:06.365Z,55.15
2024-03-26T05:30:11.786Z,54.99
2024-03-26T05:31:19.517Z,54.95
2024-03-26T05:32:24.911Z,54.88
2024-03-26T05:33:30.328Z,54.67
2024-03-26T05:34:35.777Z,54.66
2024-03-26T05:35:41.138Z,54.73
2024-03-26T05:36:46.521Z,54.68
2024-03-26T05:37:51.963Z,54.59
2024-03-26T05:38:57.514Z,54.51
2024-03-26T05:40:02.968Z,54.58
2024-03-26T05:41:08.373Z,54.65
2024-03-26T05:42:13.834Z,54.6
2024-03-26T05:43:19.251Z,54.44
2024-03-26T05:44:24.689Z,54.4
2024-03-26T05:45:30.146Z,54.5
2024-03-26T05:46:35.533Z,54.5
2024-03-26T05:47:40.973Z,54.58
2024-03-26T05:48:46.376Z,54.58
2024-03-26T05:49:51.759Z,54.46
2024-03-26T05:50:57.174Z,54.57
2024-03-26T05:52:02.580Z,54.63
2024-03-26T05:53:07.982Z,54.64
2024-03-26T05:54:13.387Z,54.76
2024-03-26T05:55:18.783Z,54.72
2024-03-26T05:56:24.227Z,54.8
2024-03-26T05:57:29.662Z,54.82
2024-03-26T05:58:35.059Z,54.91
2024-03-26T05:59:40.439Z,54.92
2024-03-26T06:00:45.874Z,54.87
2024-03-26T06:01:51.262Z,54.94
2024-03-26T06:02:56.775Z,55.01
2024-03-26T06:04:05.300Z,55
2024-03-26T06:05:10.722Z,54.99
2024-03-26T06:06:16.209Z,55.02
2024-03-26T06:07:21.662Z,55.02
2024-03-26T06:08:27.111Z,55.05
2024-03-26T06:09:32.534Z,55.11
2024-03-26T06:10:37.993Z,55.1
2024-03-26T06:11:43.803Z,55.2
2024-03-26T06:12:49.231Z,55.16
2024-03-26T06:13:54.604Z,55.25
2024-03-26T06:15:00.033Z,55.23
2024-03-26T06:16:05.422Z,55.33
2024-03-26T06:17:10.820Z,55.29
2024-03-26T06:18:16.255Z,55.23
2024-03-26T06:19:21.676Z,55.3
2024-03-26T06:20:27.075Z,55.2
2024-03-26T06:21:32.495Z,55.18
2024-03-26T06:22:37.884Z,55.09
2024-03-26T06:23:43.314Z,55.06
2024-03-26T06:24:48.849Z,55.09
2024-03-26T06:25:54.254Z,55.11
2024-03-26T06:26:59.707Z,55.18
2024-03-26T06:28:05.102Z,55.09
2024-03-26T06:29:10.588Z,55.04
2024-03-26T06:30:16.001Z,55.02
2024-03-26T06:31:21.373Z,55.03
2024-03-26T06:32:26.836Z,54.94
2024-03-26T06:33:34.596Z,54.87
2024-03-26T06:34:39.987Z,54.83
2024-03-26T06:35:45.364Z,54.86
2024-03-26T06:36:50.763Z,54.83
2024-03-26T06:37:56.185Z,54.82
2024-03-26T06:39:01.587Z,54.8
2024-03-26T06:40:06.996Z,54.77
2024-03-26T06:41:12.427Z,54.78
2024-03-26T06:42:17.866Z,54.82
2024-03-26T06:43:23.305Z,54.76
2024-03-26T06:44:28.697Z,54.78
2024-03-26T06:45:34.248Z,54.78
2024-03-26T06:46:41.882Z,54.78
2024-03-26T06:47:47.269Z,54.72
2024-03-26T06:48:52.674Z,54.62
2024-03-26T06:49:58.065Z,54.58
2024-03-26T06:51:03.502Z,54.63
2024-03-26T06:52:08.887Z,54.63
2024-03-26T06:53:14.293Z,54.6
2024-03-26T06:54:19.703Z,54.58
2024-03-26T06:55:25.138Z,54.41
2024-03-26T06:56:30.535Z,54.49
2024-03-26T06:57:35.931Z,54.32
2024-03-26T06:58:41.434Z,54.34
2024-03-26T06:59:46.837Z,54.12
2024-03-26T07:00:52.352Z,54.17
2024-03-26T07:01:57.724Z,54.13
2024-03-26T07:03:03.102Z,54.09
2024-03-26T07:04:08.544Z,54.12
2024-03-26T07:05:13.944Z,53.96
2024-03-26T07:06:19.304Z,54.02
2024-03-26T07:07:24.676Z,54.04
2024-03-26T07:08:30.035Z,53.97
2024-03-26T07:09:35.622Z,53.95
2024-03-26T07:10:41.081Z,53.89
2024-03-26T07:11:46.521Z,54
2024-03-26T07:12:52.199Z,53.88
2024-03-26T07:13:57.975Z,53.92
2024-03-26T07:15:03.467Z,53.95
2024-03-26T07:16:08.852Z,54.03
2024-03-26T07:17:14.246Z,54.12
2024-03-26T07:18:19.630Z,54.13
2024-03-26T07:19:25.026Z,54.09
2024-03-26T07:20:30.494Z,54.17
2024-03-26T07:21:35.950Z,54.15
2024-03-26T07:22:41.319Z,54.23
2024-03-26T07:23:46.756Z,54.24
2024-03-26T07:24:52.109Z,54.23
2024-03-26T07:25:57.541Z,54.28
2024-03-26T07:27:02.901Z,54.33
2024-03-26T07:28:08.283Z,54.43
2024-03-26T07:29:13.661Z,54.37
2024-03-26T07:30:19.101Z,54.34
2024-03-26T07:31:24.490Z,54.41
2024-03-26T07:32:29.875Z,54.52
2024-03-26T07:33:35.246Z,54.61
2024-03-26T07:34:40.718Z,54.59
2024-03-26T07:35:46.099Z,54.49
2024-03-26T07:36:51.556Z,54.54
2024-03-26T07:37:56.931Z,54.48
2024-03-26T07:39:02.402Z,54.54
2024-03-26T07:40:07.882Z,54.55
2024-03-26T07:41:13.289Z,54.62
2024-03-26T07:42:21.207Z,54.57
2024-03-26T07:43:27.312Z,54.54
2024-03-26T07:44:32.692Z,54.59
2024-03-26T07:45:38.051Z,54.58
2024-03-26T07:46:43.423Z,54.57
2024-03-26T07:47:48.902Z,54.55
2024-03-26T07:48:54.299Z,54.58
2024-03-26T07:49:59.961Z,54.54
2024-03-26T07:51:05.417Z,54.56
2024-03-26T07:52:10.952Z,54.53
2024-03-26T07:53:16.419Z,54.57
2024-03-26T07:54:21.896Z,54.51
2024-03-26T07:55:27.419Z,54.49
2024-03-26T07:56:32.895Z,54.5
2024-03-26T07:57:38.444Z,54.58
2024-03-26T07:58:43.935Z,54.41
2024-03-26T07:59:49.563Z,54.42
2024-03-26T08:00:55.032Z,54.49
2024-03-26T08:02:02.641Z,54.43
2024-03-26T08:03:08.155Z,54.45
2024-03-26T08:04:13.593Z,54.41
2024-03-26T08:05:18.962Z,54.45
2024-03-26T08:06:24.510Z,54.48
2024-03-26T08:07:30.018Z,54.46
2024-03-26T08:08:35.470Z,54.47
2024-03-26T08:09:43.184Z,54.38
2024-03-26T08:10:48.671Z,54.39
2024-03-26T08:11:54.489Z,54.32
2024-03-26T08:12:59.902Z,54.28
2024-03-26T08:14:05.323Z,54.28
2024-03-26T08:15:10.753Z,54.41
2024-03-26T08:16:16.178Z,54.28
2024-03-26T08:17:21.843Z,54.38
2024-03-26T08:18:27.230Z,54.49
2024-03-26T08:19:34.612Z,54.46
2024-03-26T08:20:40.010Z,54.45
2024-03-26T08:21:45.442Z,54.45
2024-03-26T08:22:50.900Z,54.39
2024-03-26T08:23:56.441Z,54.37
2024-03-26T08:25:01.801Z,54.4
2024-03-26T08:26:07.664Z,54.38
2024-03-26T08:27:13.266Z,54.42
2024-03-26T08:28:19.031Z,54.29
2024-03-26T08:29:24.623Z,54.44
2024-03-26T08:30:30.126Z,54.43
2024-03-26T08:31:35.659Z,54.38
2024-03-26T08:32:41.423Z,54.31
2024-03-26T08:33:46.864Z,54.39
2024-03-26T08:34:52.257Z,54.29
2024-03-26T08:35:57.694Z,54.38
2024-03-26T08:37:05.478Z,54.42
2024-03-26T08:38:10.862Z,54.34
2024-03-26T08:39:16.220Z,54.34
2024-03-26T08:40:21.592Z,54.27
2024-03-26T08:41:26.976Z,54.26
2024-03-26T08:42:32.375Z,54.3
2024-03-26T08:43:37.903Z,54.35
2024-03-26T08:44:43.266Z,54.36
2024-03-26T08:45:48.649Z,54.39
2024-03-26T08:46:54.016Z,54.38
2024-03-26T08:47:59.576Z,54.38
2024-03-26T08:49:07.215Z,54.42
2024-03-26T08:50:12.625Z,54.39
2024-03-26T08:51:17.992Z,54.38
2024-03-26T08:52:23.398Z,54.36
2024-03-26T08:53:28.810Z,54.35
2024-03-26T08:54:34.195Z,54.28
2024-03-26T08:55:39.587Z,54.4
2024-03-26T08:56:45.012Z,54.42
2024-03-26T08:57:50.398Z,54.32
2024-03-26T08:58:55.762Z,54.35
2024-03-26T09:00:01.185Z,54.36
2024-03-26T09:01:06.592Z,54.27
2024-03-26T09:02:12.004Z,54.25
2024-03-26T09:03:17.377Z,54.29
2024-03-26T09:04:26.177Z,54.2
2024-03-26T09:05:32.529Z,54.16
2024-03-26T09:06:37.900Z,54.11
2024-03-26T09:07:43.311Z,54.06
2024-03-26T09:08:48.675Z,54.13
2024-03-26T09:09:54.047Z,54.12
2024-03-26T09:10:59.411Z,54.17
2024-03-26T09:12:04.857Z,54.07
2024-03-26T12:10:51.832Z,46.48
2024-03-26T12:11:57.293Z,46.39
2024-03-26T12:13:02.705Z,46.3
2024-03-26T12:14:08.100Z,46.25
2024-03-26T12:15:13.465Z,46.04
2024-03-26T12:16:23.020Z,46
2024-03-26T12:17:28.401Z,46.13
2024-03-26T12:18:33.768Z,46.09
2024-03-26T12:19:39.193Z,46.04
2024-03-26T12:20:44.624Z,45.95
2024-03-26T12:21:50.116Z,46.1
2024-03-26T12:22:55.503Z,46.09
2024-03-26T12:24:00.907Z,46.45
2024-03-26T12:25:06.363Z,46.72
2024-03-26T12:26:11.739Z,46.63
2024-03-26T12:27:17.286Z,46.61
2024-03-26T12:28:22.680Z,46.19
2024-03-26T12:29:28.059Z,45.98
2024-03-26T12:30:33.454Z,45.76
2024-03-26T12:31:39.091Z,45.66
2024-03-26T12:32:44.458Z,45.4
2024-03-26T12:33:50.641Z,45.33
2024-03-26T12:34:56.044Z,45.37
2024-03-26T12:36:01.422Z,45.35
2024-03-26T12:37:06.812Z,45.27
2024-03-26T12:38:12.190Z,45.06
2024-03-26T12:39:17.585Z,45.04
2024-03-26T12:40:23.965Z,44.65
2024-03-26T12:41:29.350Z,44.47
2024-03-26T12:42:34.713Z,44.48
2024-03-26T12:43:40.085Z,44.68
2024-03-26T12:44:45.492Z,44.55
2024-03-26T12:45:50.885Z,44.36
2024-03-26T12:46:56.314Z,44.35
2024-03-26T12:48:01.768Z,44.16
2024-03-26T12:49:07.150Z,44.29
2024-03-26T12:50:12.538Z,44.14
2024-03-26T12:51:17.914Z,44.17
2024-03-26T12:52:23.294Z,44.08
2024-03-26T12:53:28.727Z,43.83
2024-03-26T12:54:34.127Z,43.85
2024-03-26T12:55:39.509Z,43.79
2024-03-26T12:56:44.891Z,44.04
2024-03-26T12:57:50.299Z,44.28
2024-03-26T12:58:55.644Z,44.51
2024-03-26T13:00:01.030Z,44.72
2024-03-26T13:01:06.413Z,45.01
2024-03-26T13:02:11.930Z,45.37
2024-03-26T13:03:17.323Z,45.57
2024-03-26T13:04:22.721Z,45.81
2024-03-26T13:05:28.113Z,46
2024-03-26T13:06:33.476Z,46.18
2024-03-26T13:07:38.841Z,46.37
2024-03-26T13:08:44.236Z,46.65
2024-03-26T13:09:49.646Z,46.9
2024-03-26T13:10:55.093Z,47.13
2024-03-26T13:12:00.459Z,47.19
2024-03-26T13:13:05.817Z,47.37
2024-03-26T13:14:11.222Z,47.46
2024-03-26T13:15:16.666Z,47.53
2024-03-26T13:16:22.060Z,47.62
2024-03-26T13:17:27.591Z,47.71
2024-03-26T13:18:33.044Z,47.79
2024-03-26T13:19:38.459Z,47.85
2024-03-26T13:20:43.881Z,47.87
2024-03-26T13:21:49.271Z,47.99
2024-03-26T13:22:54.641Z,48.07
2024-03-26T13:24:00.050Z,48.12
2024-03-26T13:25:05.496Z,48.17
2024-03-26T13:26:10.896Z,48.21
2024-03-26T13:27:16.295Z,48.27
2024-03-26T13:28:21.678Z,48.27
2024-03-26T13:29:27.092Z,48.33
2024-03-26T13:30:47.062Z,48.46
2024-03-26T13:31:52.502Z,48.55
2024-03-26T13:32:57.840Z,48.55
2024-03-26T13:34:03.247Z,48.7
2024-03-26T13:35:08.618Z,48.74
2024-03-26T13:36:14.214Z,48.89
2024-03-26T13:37:19.957Z,48.98
2024-03-26T13:38:25.392Z,49.01
2024-03-26T13:39:30.752Z,49.12
2024-03-26T13:41:00.418Z,49.17
2024-03-26T13:42:06.211Z,48.99
2024-03-26T13:43:11.645Z,49.12
2024-03-26T13:44:17.085Z,48.99
2024-03-26T13:45:22.566Z,49.04
2024-03-26T13:46:28.185Z,49.19
2024-03-26T13:47:33.681Z,49.08
2024-03-26T13:48:39.289Z,49.09
2024-03-26T13:49:44.820Z,49.3
2024-03-26T13:50:50.415Z,49.19
2024-03-26T13:51:55.929Z,49.07
2024-03-26T13:53:01.331Z,49.17
2024-03-26T13:54:06.784Z,49.32
2024-03-26T13:55:12.285Z,49.27
2024-03-26T13:56:17.660Z,49.34
2024-03-26T13:57:23.047Z,49.39
2024-03-26T13:58:28.478Z,49.42
2024-03-26T13:59:34.003Z,49.46
2024-03-26T14:00:39.471Z,49.42
2024-03-26T14:01:44.873Z,49.66
2024-03-26T14:02:50.279Z,49.77
2024-03-26T14:03:55.693Z,49.77
2024-03-26T14:05:01.314Z,49.86
2024-03-26T14:06:06.816Z,49.95
2024-03-26T14:07:12.177Z,49.99
2024-03-26T14:08:22.034Z,50.13
2024-03-26T14:09:27.657Z,50.2
2024-03-26T14:10:33.145Z,50.22
2024-03-26T14:11:38.530Z,50.26
2024-03-26T14:12:43.981Z,50.28
2024-03-26T14:13:51.926Z,50.39
2024-03-26T14:14:57.397Z,50.42
2024-03-26T14:16:02.767Z,50.36
2024-03-26T14:17:08.151Z,50.43
2024-03-26T14:18:13.584Z,50.46
2024-03-26T14:19:18.955Z,50.47
2024-03-26T14:20:24.355Z,50.52
2024-03-26T14:21:29.747Z,50.54
2024-03-26T14:22:35.143Z,50.59
2024-03-26T14:23:40.519Z,50.64
2024-03-26T14:24:45.943Z,50.65
2024-03-26T14:25:51.373Z,50.65
2024-03-26T14:26:56.721Z,50.67
2024-03-26T14:28:02.149Z,50.72
2024-03-26T14:29:07.603Z,50.76
2024-03-26T14:30:13.030Z,50.82
2024-03-26T14:31:18.424Z,50.85
2024-03-26T14:32:23.795Z,50.89
2024-03-26T14:33:29.196Z,50.91
2024-03-26T14:34:34.581Z,50.95
2024-03-26T14:35:42.171Z,50.97
2024-03-26T14:36:47.583Z,51.06
2024-03-26T14:37:53.009Z,51.03
2024-03-26T14:38:58.407Z,51.08
2024-03-26T14:40:03.816Z,51.11
2024-03-26T14:41:09.256Z,51.17
2024-03-26T14:42:14.751Z,51.18
2024-03-26T14:43:20.160Z,51.25
2024-03-26T14:44:25.548Z,51.25
2024-03-26T14:45:30.944Z,51.27
2024-03-26T14:46:36.435Z,51.33
2024-03-26T14:47:41.840Z,51.36
2024-03-26T14:48:47.230Z,51.43
2024-03-26T14:49:52.675Z,51.45
2024-03-26T14:50:58.074Z,51.44
2024-03-26T14:52:03.423Z,51.48
2024-03-26T14:53:08.814Z,51.51
2024-03-26T14:54:14.302Z,51.55
2024-03-26T14:55:19.693Z,51.57
2024-03-26T14:56:25.073Z,51.58
2024-03-26T14:57:30.471Z,51.62
2024-03-26T14:58:35.835Z,51.63
2024-03-26T14:59:41.330Z,51.67
2024-03-26T15:00:46.839Z,51.69
2024-03-26T15:01:52.284Z,51.74
2024-03-26T15:02:57.671Z,51.76
2024-03-26T15:04:03.103Z,51.75
2024-03-26T15:05:08.495Z,51.79
2024-03-26T15:06:13.948Z,51.8
2024-03-26T15:07:20.356Z,51.83
2024-03-26T15:08:25.754Z,51.83
2024-03-26T15:09:31.147Z,51.86
2024-03-26T15:10:36.581Z,51.87
2024-03-26T15:11:41.976Z,51.87
2024-03-26T15:12:47.403Z,51.86
2024-03-26T15:13:52.806Z,51.88
2024-03-26T15:14:58.242Z,51.91
2024-03-26T15:16:17.928Z,51.93
2024-03-26T15:17:23.298Z,51.96
2024-03-26T15:18:28.679Z,52.12
2024-03-26T15:19:34.127Z,52.08
2024-03-26T15:20:39.542Z,52.01
2024-03-26T15:21:44.926Z,52.01
2024-03-26T15:22:50.326Z,52.06
2024-03-26T15:23:55.725Z,52.08
2024-03-26T15:25:01.129Z,52.21
2024-03-26T15:26:08.740Z,52.14
2024-03-26T15:27:14.162Z,52.09
2024-03-26T15:28:22.015Z,52.42
2024-03-26T15:29:27.360Z,52.42
2024-03-26T15:30:32.775Z,52.66
2024-03-26T15:31:38.163Z,52.71
2024-03-26T15:32:43.600Z,52.57
2024-03-26T15:33:49.009Z,52.65
2024-03-26T15:34:55.432Z,52.62
2024-03-26T15:36:00.813Z,52.73
2024-03-26T15:37:06.259Z,52.73
2024-03-26T15:38:17.472Z,52.64
2024-03-26T15:39:24.027Z,52.65
2024-03-26T15:40:29.493Z,52.58
2024-03-26T15:41:34.861Z,52.69
2024-03-26T15:42:40.230Z,52.74
2024-03-26T15:43:45.609Z,52.72
2024-03-26T15:44:50.988Z,52.81
2024-03-26T15:45:56.401Z,52.71
2024-03-26T15:47:01.801Z,52.6
2024-03-26T15:48:07.284Z,52.82
2024-03-26T15:49:12.709Z,52.72
2024-03-26T15:50:21.706Z,52.77
2024-03-26T15:51:27.067Z,52.69
2024-03-26T15:52:32.556Z,52.74
2024-03-26T15:53:38.043Z,52.87
2024-03-26T15:54:43.443Z,52.91
2024-03-26T15:55:53.959Z,52.89
2024-03-26T15:56:59.335Z,53.18
2024-03-26T15:58:04.724Z,53.1
2024-03-26T15:59:10.106Z,53.03
2024-03-26T16:00:15.556Z,53.04
2024-03-26T16:01:20.950Z,53.29
2024-03-26T16:02:26.382Z,53.21
2024-03-26T16:03:31.869Z,53.18
2024-03-26T16:04:37.313Z,53.29
2024-03-26T16:05:42.710Z,53.29
2024-03-26T16:06:48.102Z,53.32
2024-03-26T16:07:53.477Z,53.3
2024-03-26T16:08:58.838Z,53.39
2024-03-26T16:10:52.685Z,53.28
2024-03-26T16:12:07.240Z,53.36
2024-03-26T16:13:12.628Z,53.28
2024-03-26T16:14:17.991Z,53.3
2024-03-26T16:15:23.363Z,53.25
2024-03-26T16:16:29.084Z,53.29
2024-03-26T16:17:34.683Z,53.24
2024-03-26T16:18:40.074Z,53.26
2024-03-26T16:19:45.569Z,53.38
2024-03-26T16:20:50.939Z,53.32
2024-03-26T16:21:56.374Z,53.39
2024-03-26T16:23:01.961Z,53.38
2024-03-26T16:24:07.386Z,53.37
2024-03-26T16:25:12.791Z,53.31
2024-03-26T16:26:18.270Z,53.3
2024-03-26T16:27:23.790Z,53.31
2024-03-26T16:28:29.189Z,53.3
2024-03-26T16:29:34.564Z,53.33
2024-03-26T16:30:40.139Z,53.3
2024-03-26T16:31:45.660Z,53.33
2024-03-26T16:32:51.011Z,53.3
2024-03-26T16:33:56.373Z,53.26
2024-03-26T16:35:01.838Z,52.84
2024-03-26T16:36:07.189Z,52.92
2024-03-26T16:37:12.541Z,52.69
2024-03-26T16:38:17.924Z,52.65
2024-03-26T16:39:23.432Z,52.66
2024-03-26T16:40:28.953Z,52.87
2024-03-26T16:41:35.356Z,52.98
2024-03-26T16:42:40.760Z,52.95
2024-03-26T16:44:02.217Z,52.88
2024-03-26T16:45:07.598Z,53.08
2024-03-26T16:46:12.975Z,52.93
2024-03-26T16:47:18.387Z,53
2024-03-26T16:48:26.738Z,53.11
2024-03-26T16:49:32.154Z,53.06
2024-03-26T16:50:37.595Z,53.14
2024-03-26T16:51:42.979Z,53.21
2024-03-26T16:52:51.504Z,53.17
2024-03-26T16:53:56.898Z,53.15
2024-03-26T16:55:03.371Z,53.24
2024-03-26T16:56:08.747Z,53.28
2024-03-26T16:57:14.153Z,53.48
2024-03-26T16:58:21.958Z,53.57
2024-03-26T16:59:27.370Z,53.52
2024-03-26T17:00:32.828Z,53.7
2024-03-26T17:01:38.191Z,53.67
2024-03-26T17:02:43.600Z,53.7
2024-03-26T17:03:48.984Z,53.76
2024-03-26T17:04:54.378Z,53.84
2024-03-26T17:05:59.776Z,53.82
2024-03-26T17:07:05.145Z,53.9